Aviation Digital Data Service (ADDS)

Output produced by METARs form (1159 UTC 01 July 2015)
found at http://aviationweather.gov/adds/metars/
 
KMSS 011120Z 0112/0212 06004KT P6SM -SHRA SCT020 OVC035 
     TEMPO 0112/0115 3SM SHRA BR OVC028 
     FM011500 21005KT P6SM VCSH SCT015 OVC028 
     FM011800 23012G20KT P6SM OVC035 
     FM020300 25008KT P6SM SCT045 BKN100